Time;durP1;ratioP1;P1;durP2;ratioP2;P2;SDS_P1;SDS_P2;PMS_P1;PMS_P2;Temp;Humidity;BMP_temperature;BMP_pressure;BME280_temperature;BME280_humidity;BME280_pressure;Samples;Min_cycle;Max_cycle;Signal;HPM_P1;HPM_P2
2022/01/23 00:02:10;;;;;;;27.00;10.40;;;;;;;-0.79;91.84;95315.75;5006768;28;20092;-60
2022/01/23 00:04:37;;;;;;;28.27;10.43;;;;;;;-0.84;92.12;95309.38;5009460;28;20042;-60
2022/01/23 00:07:07;;;;;;;28.45;10.73;;;;;;;-0.82;92.03;95311.78;5008199;28;20060;-60
2022/01/23 00:09:34;;;;;;;28.45;10.63;;;;;;;-0.70;91.65;95312.00;5008672;28;20037;-60
2022/01/23 00:12:09;;;;;;;29.80;10.50;;;;;;;-0.70;91.61;95317.41;5008016;28;20052;-60
2022/01/23 00:17:22;;;;;;;31.20;10.17;;;;;;;-0.87;93.35;95315.38;5011123;28;20601;-60
2022/01/23 00:19:54;;;;;;;30.75;10.02;;;;;;;-0.69;92.92;95305.50;5011536;28;20041;-60
2022/01/23 00:22:27;;;;;;;28.55;9.77;;;;;;;-0.64;91.65;95315.38;5012028;28;20091;-60
2022/01/23 00:32:51;;;;;;;28.00;10.20;;;;;;;-0.90;92.92;95317.91;5011564;28;20048;-61
2022/01/23 00:35:18;;;;;;;28.42;9.98;;;;;;;-0.99;94.00;95336.69;5011541;28;20037;-58
2022/01/23 00:37:45;;;;;;;32.22;9.63;;;;;;;-0.86;93.51;95327.75;5010044;28;20045;-59
2022/01/23 00:40:12;;;;;;;29.00;9.93;;;;;;;-0.85;93.08;95325.84;5010335;28;20041;-59
2022/01/23 00:42:39;;;;;;;28.93;9.50;;;;;;;-0.81;93.29;95326.84;5011900;28;20056;-59
2022/01/23 00:47:39;;;;;;;28.40;9.90;;;;;;;-1.06;93.85;95322.88;5043716;28;20042;-58
2022/01/23 00:50:06;;;;;;;27.75;9.43;;;;;;;-0.88;93.17;95315.72;5011422;28;20416;-59
2022/01/23 00:52:33;;;;;;;24.42;8.75;;;;;;;-0.82;92.84;95317.16;5011799;28;20046;-58
2022/01/23 00:55:00;;;;;;;23.50;9.07;;;;;;;-0.76;92.54;95312.44;5011311;28;20038;-59
2022/01/23 00:57:27;;;;;;;28.30;8.35;;;;;;;-0.69;92.21;95308.19;5026576;28;20477;-59
2022/01/23 00:59:53;;;;;;;26.17;9.07;;;;;;;-0.87;92.61;95306.50;5011071;28;20052;-58
2022/01/23 01:02:20;;;;;;;26.63;9.25;;;;;;;-0.97;93.66;95307.56;5011326;28;20411;-58
2022/01/23 01:04:47;;;;;;;28.67;9.43;;;;;;;-0.88;93.29;95313.81;5010971;28;20127;-58
2022/01/23 01:07:14;;;;;;;24.73;8.50;;;;;;;-0.93;93.21;95308.53;5026327;28;20048;-59
2022/01/23 01:09:43;;;;;;;27.00;8.90;;;;;;;-1.12;94.17;95313.34;5011292;28;20042;-58
2022/01/23 01:12:17;;;;;;;24.80;8.82;;;;;;;-0.98;94.00;95322.13;5042117;28;20048;-60
2022/01/23 01:15:01;;;;;;;26.75;8.55;;;;;;;-0.91;94.03;95322.50;5010600;28;20042;-58
2022/01/23 01:33:43;;;;;;;16.07;6.30;;;;;;;-0.66;91.43;95333.75;5009599;28;20050;-59
2022/01/23 01:36:21;;;;;;;16.20;5.97;;;;;;;-0.66;91.03;95331.06;5010233;28;20313;-58
2022/01/23 01:38:49;;;;;;;15.95;6.10;;;;;;;-0.58;90.79;95318.69;5010367;28;20334;-60
2022/01/23 01:41:21;;;;;;;15.65;6.03;;;;;;;-0.57;90.74;95325.69;5010569;28;20087;-59
2022/01/23 01:43:50;;;;;;;16.55;6.65;;;;;;;-0.54;90.92;95327.75;5010297;28;20398;-58
2022/01/23 01:46:16;;;;;;;17.37;6.60;;;;;;;-0.68;91.18;95320.56;5010457;28;20095;-59
2022/01/23 01:48:43;;;;;;;19.33;7.32;;;;;;;-0.86;91.55;95324.28;5010399;28;20042;-57
2022/01/23 01:51:15;;;;;;;20.75;7.90;;;;;;;-0.74;91.97;95323.72;5010791;28;20103;-59
2022/01/23 01:53:49;;;;;;;20.85;7.93;;;;;;;-0.81;92.15;95314.16;5010635;28;20042;-59
2022/01/23 01:56:17;;;;;;;19.98;8.00;;;;;;;-0.68;91.60;95317.88;5009535;28;21538;-58
2022/01/23 02:02:46;;;;;;;17.80;6.90;;;;;;;-0.73;91.87;95323.38;5010135;28;20050;-59
2022/01/23 02:09:30;;;;;;;21.08;7.40;;;;;;;-0.54;90.86;95314.28;4998446;28;20648;-59
2022/01/23 02:17:37;;;;;;;17.13;6.57;;;;;;;-0.36;89.53;95310.56;5009772;28;20045;-59
2022/01/23 02:55:41;;;;;;;19.75;6.80;;;;;;;-0.17;89.95;95299.53;4980846;28;20038;-59
2022/01/23 02:58:11;;;;;;;19.48;7.57;;;;;;;-0.09;89.35;95296.06;5008866;28;20042;-58
2022/01/23 03:00:48;;;;;;;19.23;7.47;;;;;;;-0.31;89.67;95296.94;5002214;28;20057;-59
2022/01/23 03:03:23;;;;;;;21.27;7.85;;;;;;;-0.36;90.28;95299.78;5003288;28;20827;-58
2022/01/23 03:11:33;;;;;;;17.55;7.47;;;;;;;0.05;89.21;95295.94;5008502;28;21824;-59
2022/01/23 03:14:16;;;;;;;19.00;7.32;;;;;;;0.10;88.79;95298.50;5008567;28;20046;-59
2022/01/23 03:25:58;;;;;;;18.70;7.43;;;;;;;0.04;88.50;95294.34;5008878;28;20722;-59
2022/01/23 03:30:25;;;;;;;16.08;6.88;;;;;;;0.05;87.81;95292.44;5008032;28;20226;-58
2022/01/23 03:32:53;;;;;;;16.00;6.20;;;;;;;0.06;88.23;95286.72;5008419;28;20046;-59
2022/01/23 03:35:22;;;;;;;15.35;5.95;;;;;;;0.02;87.63;95285.78;5008779;28;20052;-59
2022/01/23 03:37:49;;;;;;;16.60;5.70;;;;;;;0.12;87.33;95279.25;5008530;28;20494;-58
2022/01/23 03:40:17;;;;;;;18.55;7.68;;;;;;;0.17;87.36;95261.00;5008913;28;20485;-59
2022/01/23 03:42:45;;;;;;;15.02;6.30;;;;;;;0.16;86.48;95255.91;5008143;28;20475;-56
2022/01/23 03:50:37;;;;;;;12.50;5.15;;;;;;;0.23;85.75;95266.28;5011960;28;20045;-58
2022/01/23 03:53:04;;;;;;;13.05;4.72;;;;;;;0.19;85.96;95266.09;5012646;28;20053;-58
2022/01/23 03:55:32;;;;;;;12.13;5.40;;;;;;;0.11;85.77;95262.28;5011327;28;20044;-58
2022/01/23 03:57:58;;;;;;;14.33;6.00;;;;;;;-0.29;87.46;95275.03;5012166;28;20050;-59
2022/01/23 04:00:25;;;;;;;17.50;6.68;;;;;;;-0.48;88.78;95278.00;5010170;28;20038;-58
2022/01/23 04:02:52;;;;;;;14.80;5.65;;;;;;;-0.45;89.39;95285.47;5012193;28;20058;-59
2022/01/23 04:05:19;;;;;;;14.27;5.70;;;;;;;-0.31;88.89;95279.97;5012592;28;20038;-59
2022/01/23 04:07:46;;;;;;;17.98;7.20;;;;;;;-0.43;88.83;95292.13;5011955;28;20095;-58
2022/01/23 04:10:15;;;;;;;16.27;6.70;;;;;;;-0.35;88.91;95293.28;5012495;28;20072;-59
2022/01/23 04:12:52;;;;;;;19.92;8.13;;;;;;;-0.37;88.72;95308.19;5012164;28;20476;-59
2022/01/23 04:20:35;;;;;;;13.40;5.80;;;;;;;-0.32;88.61;95311.53;5012374;28;20116;-59
2022/01/23 05:04:29;;;;;;;9.87;4.13;;;;;;;0.17;85.11;95322.31;5010620;28;21838;-59
2022/01/23 05:07:05;;;;;;;11.57;4.93;;;;;;;0.16;85.16;95329.63;5011411;28;20497;-59
2022/01/23 05:09:33;;;;;;;10.02;4.70;;;;;;;0.13;84.84;95327.53;5009803;28;20052;-60
2022/01/23 05:12:04;;;;;;;10.85;4.70;;;;;;;0.18;84.92;95330.09;5011047;28;20042;-59
2022/01/23 05:14:36;;;;;;;11.98;5.20;;;;;;;0.16;85.02;95326.09;5010868;28;20392;-59
2022/01/23 05:17:05;;;;;;;11.97;5.37;;;;;;;0.24;84.92;95333.44;5010663;28;20127;-59
2022/01/23 05:19:33;;;;;;;10.57;4.95;;;;;;;0.28;85.02;95339.81;5010954;28;20046;-59
2022/01/23 05:22:14;;;;;;;11.60;5.00;;;;;;;0.28;84.54;95337.13;5009170;28;20479;-59
2022/01/23 05:24:46;;;;;;;12.57;5.45;;;;;;;0.04;84.97;95340.25;5010803;28;20042;-59
2022/01/23 05:27:13;;;;;;;12.93;5.22;;;;;;;0.17;85.05;95339.31;5010296;28;20809;-59
2022/01/23 05:29:40;;;;;;;13.37;5.00;;;;;;;0.23;84.72;95336.47;5009233;28;20046;-59
2022/01/23 05:32:09;;;;;;;12.27;5.05;;;;;;;0.18;84.82;95329.28;5010834;28;20549;-59
2022/01/23 05:34:36;;;;;;;11.82;4.50;;;;;;;0.07;85.27;95322.63;5010961;28;20123;-59
2022/01/23 05:37:03;;;;;;;9.80;3.95;;;;;;;0.11;85.34;95320.88;5010183;28;20179;-59
2022/01/23 05:39:33;;;;;;;8.73;4.00;;;;;;;0.24;85.21;95314.53;5010508;28;20042;-59
2022/01/23 05:42:06;;;;;;;7.60;3.47;;;;;;;0.30;84.12;95313.31;5010112;28;20052;-59
2022/01/23 05:44:36;;;;;;;11.00;4.53;;;;;;;0.03;85.03;95310.84;5010348;28;20034;-59
2022/01/23 05:47:04;;;;;;;11.90;5.53;;;;;;;-0.30;86.21;95317.41;5010196;28;20046;-59
2022/01/23 05:49:31;;;;;;;12.65;5.03;;;;;;;-0.52;88.57;95312.09;5010205;28;20046;-59
2022/01/23 05:51:58;;;;;;;9.63;4.35;;;;;;;-0.50;88.60;95313.38;5009924;28;20056;-59
2022/01/23 05:54:25;;;;;;;11.67;4.40;;;;;;;-0.34;87.87;95321.84;5010512;28;20050;-59
2022/01/23 05:56:52;;;;;;;10.63;4.55;;;;;;;-0.18;87.86;95308.75;5009882;28;20038;-59
2022/01/23 05:59:20;;;;;;;12.35;5.25;;;;;;;-0.01;87.08;95324.97;5010153;28;20048;-58
2022/01/23 06:01:51;;;;;;;11.95;4.82;;;;;;;0.09;86.72;95318.47;5009553;28;20061;-58
2022/01/23 06:04:19;;;;;;;11.68;4.65;;;;;;;0.18;86.14;95323.88;5010543;28;20122;-59
2022/01/23 06:06:46;;;;;;;9.93;4.47;;;;;;;0.27;85.84;95330.13;5009560;28;20050;-59
2022/01/23 06:09:14;;;;;;;13.50;5.38;;;;;;;0.29;85.28;95330.59;5010033;28;20038;-59
2022/01/23 06:11:40;;;;;;;15.35;6.18;;;;;;;0.31;84.98;95333.00;5009547;28;20410;-59
2022/01/23 06:14:09;;;;;;;13.98;5.75;;;;;;;0.29;84.28;95330.59;5008228;28;20045;-59
2022/01/23 06:16:36;;;;;;;13.43;5.88;;;;;;;0.32;84.65;95340.78;5009856;28;20036;-59
2022/01/23 06:19:03;;;;;;;13.53;5.87;;;;;;;0.32;84.62;95338.06;5009719;28;20050;-59
2022/01/23 06:21:31;;;;;;;14.52;5.82;;;;;;;0.35;84.69;95336.66;5008700;28;20375;-59
2022/01/23 06:24:24;;;;;;;14.60;6.45;;;;;;;0.38;84.75;95330.59;5009529;28;20049;-59
2022/01/23 06:26:50;;;;;;;14.63;6.43;;;;;;;0.42;84.21;95331.56;5009120;28;20048;-59
2022/01/23 06:29:18;;;;;;;12.55;5.80;;;;;;;0.31;84.00;95325.69;5009744;28;20482;-59
2022/01/23 06:31:46;;;;;;;14.63;6.30;;;;;;;0.02;85.26;95334.34;5009079;28;20050;-59
2022/01/23 06:34:15;;;;;;;14.35;6.22;;;;;;;0.08;85.21;95327.69;5009861;28;20049;-59
2022/01/23 06:36:42;;;;;;;14.80;6.70;;;;;;;0.06;85.65;95321.00;5009702;28;20053;-59
2022/01/23 06:39:10;;;;;;;13.55;6.15;;;;;;;0.19;85.51;95320.88;5040656;28;20103;-59
2022/01/23 06:41:39;;;;;;;12.75;6.10;;;;;;;0.27;85.18;95311.22;5009473;28;20574;-59
2022/01/23 06:44:06;;;;;;;13.83;6.37;;;;;;;0.33;84.53;95301.84;5007977;28;20052;-59
2022/01/23 06:46:34;;;;;;;12.93;6.07;;;;;;;0.36;84.28;95311.22;5009721;28;20483;-59
2022/01/23 06:49:01;;;;;;;16.75;7.32;;;;;;;-0.01;84.86;95316.88;5007632;28;20076;-59
2022/01/23 06:51:27;;;;;;;17.83;8.18;;;;;;;-0.17;86.01;95307.63;5009551;28;20527;-58
2022/01/23 06:53:54;;;;;;;15.75;7.80;;;;;;;-0.42;87.79;95328.00;5009181;28;20077;-60
2022/01/23 06:56:21;;;;;;;13.77;6.77;;;;;;;-0.33;87.99;95322.63;5009699;28;20071;-60
2022/01/23 06:58:48;;;;;;;16.55;7.38;;;;;;;-0.17;86.98;95325.72;5008711;28;20402;-60
2022/01/23 07:01:15;;;;;;;16.38;7.28;;;;;;;0.04;86.22;95334.03;5005268;28;20044;-59
2022/01/23 07:03:43;;;;;;;12.43;6.30;;;;;;;0.09;86.28;95341.97;4997605;28;20386;-59
2022/01/23 07:06:10;;;;;;;13.50;6.28;;;;;;;0.11;85.97;95348.66;5008517;28;20765;-59
2022/01/23 07:08:57;;;;;;;13.03;5.30;;;;;;;0.15;85.73;95360.41;5008635;28;20045;-59
2022/01/23 07:11:24;;;;;;;14.23;6.50;;;;;;;0.11;85.52;95367.56;5005874;28;20084;-59
2022/01/23 07:13:51;;;;;;;14.98;6.43;;;;;;;0.11;85.57;95372.16;5008740;28;20740;-58
2022/01/23 07:16:18;;;;;;;15.98;7.43;;;;;;;0.26;85.54;95373.63;5008922;28;20176;-59
2022/01/23 07:18:45;;;;;;;17.38;7.72;;;;;;;0.30;85.17;95363.78;5007277;28;20503;-58
2022/01/23 07:21:12;;;;;;;16.00;6.43;;;;;;;0.30;84.49;95370.00;5023903;28;20041;-59
2022/01/23 07:23:38;;;;;;;14.15;6.70;;;;;;;0.26;85.11;95366.31;5007105;28;20048;-59
2022/01/23 07:26:07;;;;;;;14.65;6.70;;;;;;;0.35;85.06;95375.25;5008470;28;20046;-59
2022/01/23 07:28:40;;;;;;;18.63;9.18;;;;;;;0.37;84.86;95378.41;5007359;28;20048;-59
2022/01/23 07:31:09;;;;;;;18.75;9.13;;;;;;;0.47;84.66;95381.94;5008675;28;20050;-59
2022/01/23 07:33:36;;;;;;;18.47;7.67;;;;;;;0.34;84.18;95375.53;5008986;28;20095;-59
2022/01/23 07:36:04;;;;;;;16.38;7.60;;;;;;;0.29;85.15;95373.78;5008518;28;20068;-59
2022/01/23 07:38:31;;;;;;;16.70;7.82;;;;;;;0.47;84.83;95379.25;5008982;28;20046;-59
2022/01/23 07:40:58;;;;;;;17.83;8.02;;;;;;;0.57;84.42;95377.03;5008504;28;20497;-59
2022/01/23 07:43:25;;;;;;;20.42;9.85;;;;;;;0.47;84.51;95380.03;5008879;28;20048;-60
2022/01/23 07:45:52;;;;;;;20.73;10.47;;;;;;;0.54;84.24;95377.69;5008281;28;20050;-59
2022/01/23 07:48:18;;;;;;;20.17;10.93;;;;;;;0.72;84.28;95377.69;5008767;28;20487;-59
2022/01/23 07:50:45;;;;;;;19.65;9.68;;;;;;;0.81;83.86;95370.38;5007642;28;20038;-59
2022/01/23 07:53:12;;;;;;;18.05;8.25;;;;;;;0.47;84.21;95382.72;5008823;28;20085;-59
2022/01/23 07:55:38;;;;;;;23.75;9.90;;;;;;;0.76;83.36;95376.72;5007089;28;20497;-59
2022/01/23 07:58:12;;;;;;;20.57;8.97;;;;;;;0.53;84.46;95376.06;5007138;28;20038;-59
2022/01/23 08:00:41;;;;;;;21.92;9.70;;;;;;;0.68;83.77;95382.13;5007367;28;20040;-59
2022/01/23 08:03:09;;;;;;;19.50;9.10;;;;;;;0.90;83.41;95379.28;5039470;28;20042;-59
2022/01/23 08:05:37;;;;;;;21.00;9.88;;;;;;;0.79;83.09;95383.41;5008961;28;20099;-60
2022/01/23 08:08:04;;;;;;;21.55;9.35;;;;;;;0.79;83.31;95380.72;5008478;28;20179;-60
2022/01/23 08:10:31;;;;;;;25.57;9.93;;;;;;;0.52;84.05;95393.38;5023347;28;20038;-60
2022/01/23 08:12:58;;;;;;;23.95;11.10;;;;;;;0.64;84.33;95397.38;5007496;28;20046;-60
2022/01/23 08:15:25;;;;;;;23.67;10.73;;;;;;;1.03;83.06;95382.94;5008298;28;20038;-60
2022/01/23 08:17:52;;;;;;;23.30;10.65;;;;;;;1.34;82.35;95382.75;5006571;28;20552;-60
2022/01/23 08:20:18;;;;;;;23.92;10.93;;;;;;;1.28;81.63;95385.94;5008408;28;20386;-60
2022/01/23 08:22:45;;;;;;;23.70;10.67;;;;;;;1.58;80.85;95389.56;5006024;28;20042;-60
2022/01/23 08:25:12;;;;;;;24.98;11.50;;;;;;;1.85;79.90;95385.69;5008218;28;20107;-60
2022/01/23 08:27:39;;;;;;;21.67;10.13;;;;;;;1.84;79.54;95397.63;5007878;28;20053;-60
2022/01/23 08:30:06;;;;;;;20.15;10.05;;;;;;;1.33;79.90;95394.69;5007710;28;20042;-60
2022/01/23 08:32:33;;;;;;;19.67;9.73;;;;;;;0.71;82.46;95395.03;5007958;28;20049;-59
2022/01/23 08:35:00;;;;;;;20.67;9.87;;;;;;;0.58;83.81;95402.13;5008094;28;20052;-60
2022/01/23 08:37:27;;;;;;;23.30;11.25;;;;;;;1.23;82.69;95399.63;5043506;28;20038;-59
2022/01/23 08:39:54;;;;;;;21.63;9.95;;;;;;;0.91;82.71;95415.22;5011107;28;20406;-59
2022/01/23 08:42:21;;;;;;;19.83;9.15;;;;;;;0.87;82.50;95416.97;5011497;28;20050;-59
2022/01/23 08:44:48;;;;;;;21.08;10.60;;;;;;;0.33;84.54;95422.56;5010638;28;20124;-58
2022/01/23 08:47:15;;;;;;;21.83;10.53;;;;;;;0.45;85.80;95413.88;5011568;28;20038;-59
2022/01/23 08:49:46;;;;;;;22.02;10.57;;;;;;;0.66;84.66;95425.66;5011391;28;20056;-59
2022/01/23 08:52:19;;;;;;;21.15;9.25;;;;;;;0.82;85.08;95423.31;5010506;28;21688;-59
2022/01/23 08:54:49;;;;;;;24.20;11.45;;;;;;;0.24;86.37;95424.44;5009328;28;20048;-59
2022/01/23 08:57:19;;;;;;;25.58;11.57;;;;;;;0.33;86.45;95417.19;5011263;28;20037;-60
2022/01/23 08:59:47;;;;;;;20.53;10.00;;;;;;;0.98;83.99;95416.31;5010947;28;20050;-59
2022/01/23 09:02:14;;;;;;;19.95;9.52;;;;;;;1.12;81.95;95413.47;5011433;28;20403;-59
2022/01/23 09:04:43;;;;;;;22.88;10.75;;;;;;;1.56;81.15;95411.53;5010747;28;20048;-60
2022/01/23 09:07:10;;;;;;;19.95;9.77;;;;;;;2.25;79.02;95398.09;5010511;28;21833;-60
2022/01/23 09:09:39;;;;;;;19.20;8.95;;;;;;;2.70;77.01;95400.28;5011347;28;20038;-59
2022/01/23 09:13:04;;;;;;;17.30;8.10;;;;;;;3.08;74.61;95393.91;4993460;28;20041;-59
2022/01/23 09:14:57;;;;;;;9.85;5.13;;;;;;;2.87;71.22;95402.84;5012009;28;20060;-59
2022/01/23 09:17:24;;;;;;;9.55;4.95;;;;;;;2.99;71.29;95407.56;5011494;28;20237;-59
2022/01/23 09:19:51;;;;;;;9.55;5.32;;;;;;;3.31;69.77;95402.53;5010490;28;20046;-60
2022/01/23 09:22:17;;;;;;;7.60;4.32;;;;;;;3.35;68.16;95403.44;5009709;28;20044;-59
2022/01/23 09:24:45;;;;;;;5.97;3.60;;;;;;;2.98;67.31;95408.69;5009252;28;20475;-59
2022/01/23 09:27:18;;;;;;;7.00;3.40;;;;;;;2.86;68.20;95408.59;5011040;28;20038;-59
2022/01/23 09:29:50;;;;;;;7.72;3.78;;;;;;;2.83;67.77;95410.06;5010455;28;20418;-59
2022/01/23 09:32:20;;;;;;;6.20;3.25;;;;;;;2.76;68.06;95417.94;5011231;28;20060;-60
2022/01/23 09:34:48;;;;;;;8.07;4.43;;;;;;;2.62;68.27;95417.34;5010515;28;20099;-59
2022/01/23 09:37:17;;;;;;;6.53;3.27;;;;;;;2.69;68.58;95420.34;5011075;28;20042;-59
2022/01/23 09:39:46;;;;;;;8.88;4.50;;;;;;;3.17;67.11;95405.50;5010389;28;20049;-56
2022/01/23 09:42:27;;;;;;;6.95;3.40;;;;;;;3.19;65.48;95406.75;5026049;28;20042;-59
2022/01/23 09:45:01;;;;;;;7.47;3.63;;;;;;;3.27;66.02;95407.81;5010221;28;20709;-59
2022/01/23 09:47:28;;;;;;;9.27;4.70;;;;;;;3.53;66.48;95417.66;5009183;28;20046;-59
2022/01/23 09:49:57;;;;;;;9.83;5.10;;;;;;;3.62;65.37;95409.44;5010417;28;20038;-59
2022/01/23 09:52:29;;;;;;;10.77;5.93;;;;;;;3.79;65.35;95411.97;5011008;28;20041;-60
2022/01/23 09:55:00;;;;;;;15.38;7.97;;;;;;;3.73;64.82;95414.09;5010259;28;20054;-59
2022/01/23 09:57:30;;;;;;;9.98;6.50;;;;;;;4.04;63.95;95412.03;5009523;28;20038;-59
2022/01/23 09:59:59;;;;;;;8.55;3.75;;;;;;;4.16;63.35;95404.69;5010237;28;20054;-59
2022/01/23 10:02:28;;;;;;;15.67;6.33;;;;;;;4.28;63.05;95408.56;5010767;28;20053;-60
2022/01/23 10:05:01;;;;;;;18.88;8.45;;;;;;;4.43;62.53;95391.59;5010191;28;20042;-59
2022/01/23 10:07:28;;;;;;;7.13;3.00;;;;;;;3.33;61.28;95401.06;5010857;28;20044;-59
2022/01/23 10:10:08;;;;;;;4.32;1.83;;;;;;;3.72;62.19;95398.16;5009918;28;20365;-59
2022/01/23 10:12:39;;;;;;;4.15;2.17;;;;;;;3.30;61.67;95390.88;5010476;28;20050;-59
2022/01/23 10:15:07;;;;;;;6.50;2.47;;;;;;;2.91;63.38;95392.13;5009651;28;20042;-59
2022/01/23 10:17:34;;;;;;;6.35;2.63;;;;;;;3.39;63.74;95390.81;5007817;28;20474;-59
2022/01/23 10:20:04;;;;;;;12.02;4.03;;;;;;;3.85;62.59;95388.13;5010003;28;20046;-59
2022/01/23 10:22:32;;;;;;;9.90;3.53;;;;;;;3.98;61.77;95387.81;5010661;28;20069;-59
2022/01/23 10:25:16;;;;;;;12.88;3.92;;;;;;;3.21;63.77;95384.72;5009690;28;20056;-59
2022/01/23 10:28:12;;;;;;;24.33;3.40;;;;;;;3.26;63.56;95394.56;5024068;28;20034;-61
2022/01/23 10:30:51;;;;;;;9.18;2.33;;;;;;;3.02;63.17;95389.81;5010230;28;20409;-59
2022/01/23 10:33:24;;;;;;;6.30;2.05;;;;;;;2.70;64.13;95376.66;5009236;28;20417;-59
2022/01/23 10:36:19;;;;;;;7.60;2.28;;;;;;;1.98;66.11;95379.25;5007938;28;20359;-59
2022/01/23 10:39:01;;;;;;;4.45;2.10;;;;;;;2.30;65.92;95377.03;5009198;28;20037;-59
2022/01/23 10:50:02;;;;;;;3.70;1.67;;;;;;;2.92;62.46;95359.28;5008814;28;20123;-59
2022/01/23 10:52:45;;;;;;;4.05;1.67;;;;;;;3.90;60.72;95355.31;5009614;28;20057;-59
2022/01/23 10:55:12;;;;;;;9.47;2.03;;;;;;;4.40;60.36;95349.56;5008380;28;21586;-59
2022/01/23 10:57:41;;;;;;;7.75;2.13;;;;;;;3.20;61.89;95347.88;5009252;28;20042;-60
2022/01/23 11:00:19;;;;;;;4.28;2.10;;;;;;;3.02;63.27;95347.25;5008199;28;20041;-58
2022/01/23 11:02:47;;;;;;;6.70;1.70;;;;;;;3.88;59.40;95336.63;5008799;28;20113;-60
2022/01/23 11:05:18;;;;;;;5.90;2.90;;;;;;;2.05;65.33;95340.03;5009463;28;20508;-59
2022/01/23 11:07:46;;;;;;;3.60;2.00;;;;;;;1.50;66.75;95342.47;5008794;28;20056;-59
2022/01/23 11:10:21;;;;;;;3.58;2.10;;;;;;;1.90;66.78;95347.59;5009119;28;20050;-59
2022/01/23 11:18:12;;;;;;;4.47;2.45;;;;;;;2.65;65.30;95333.47;5006587;28;20484;-59
2022/01/23 11:20:40;;;;;;;5.07;2.57;;;;;;;1.89;66.38;95342.50;5009404;28;20042;-59
2022/01/23 11:23:22;;;;;;;5.22;2.63;;;;;;;1.43;68.30;95338.66;5007461;28;20037;-59
2022/01/23 11:25:51;;;;;;;4.20;2.30;;;;;;;1.39;68.25;95341.25;5008370;28;20071;-59
2022/01/23 11:28:28;;;;;;;5.65;3.28;;;;;;;1.37;67.98;95338.84;5009067;28;20272;-59
2022/01/23 11:30:55;;;;;;;5.05;2.38;;;;;;;1.47;67.86;95337.72;5008293;28;20056;-59
2022/01/23 11:33:22;;;;;;;4.37;2.30;;;;;;;2.35;65.40;95336.22;5009286;28;20538;-59
2022/01/23 11:35:49;;;;;;;3.60;1.88;;;;;;;2.05;65.47;95337.34;5008193;28;20038;-59
2022/01/23 11:38:19;;;;;;;5.82;2.22;;;;;;;3.06;62.97;95340.03;5009155;28;20064;-59
2022/01/23 11:54:50;;;;;;;6.88;2.65;;;;;;;3.28;62.76;95325.31;5006974;28;20368;-58
2022/01/23 11:57:39;;;;;;;5.65;2.45;;;;;;;3.31;61.94;95321.13;5006752;28;20049;-59
2022/01/23 12:00:16;;;;;;;4.43;2.10;;;;;;;3.15;63.00;95315.53;5008252;28;20536;-59
2022/01/23 12:02:44;;;;;;;5.05;2.60;;;;;;;3.17;62.35;95324.91;5009023;28;20451;-58
2022/01/23 12:05:15;;;;;;;6.32;2.40;;;;;;;2.89;63.24;95315.75;5007662;28;21525;-59
2022/01/23 12:08:30;;;;;;;5.57;2.50;;;;;;;3.71;61.68;95315.91;5008528;28;20462;-58
2022/01/23 12:11:34;;;;;;;5.80;3.10;;;;;;;3.30;62.63;95314.91;4990886;28;20051;-59
2022/01/23 12:17:02;;;;;;;4.78;2.70;;;;;;;2.26;65.55;95318.44;4992075;28;20046;-60
2022/01/23 12:19:31;;;;;;;5.03;2.78;;;;;;;3.06;63.90;95303.97;4992855;28;20446;-59
2022/01/23 12:22:30;;;;;;;4.60;2.75;;;;;;;3.38;61.90;95308.59;4992060;28;20053;-58
2022/01/23 12:25:05;;;;;;;6.30;3.08;;;;;;;2.82;63.54;95301.94;4991953;28;20043;-59
2022/01/23 12:27:32;;;;;;;7.40;3.43;;;;;;;2.66;65.76;95302.53;4992674;28;20048;-60
2022/01/23 12:30:17;;;;;;;6.72;4.15;;;;;;;2.05;67.95;95312.97;4991768;28;20056;-59
2022/01/23 12:33:06;;;;;;;6.30;3.30;;;;;;;1.75;68.52;95311.03;4992024;28;20049;-59
2022/01/23 12:35:43;;;;;;;9.00;6.05;;;;;;;2.35;66.56;95306.41;4992526;28;20049;-59
2022/01/23 12:38:13;;;;;;;6.72;4.10;;;;;;;3.21;64.62;95306.06;4991041;28;20580;-59
2022/01/23 12:40:47;;;;;;;5.13;2.90;;;;;;;2.59;65.23;95297.63;5006558;28;20054;-59
2022/01/23 12:43:21;;;;;;;5.13;2.70;;;;;;;3.02;64.86;95292.19;4998087;28;20574;-59
2022/01/23 12:45:58;;;;;;;5.63;3.10;;;;;;;3.06;64.48;95276.84;5011153;28;20034;-59
2022/01/23 12:48:25;;;;;;;7.18;3.67;;;;;;;3.79;62.37;95276.22;5011967;28;20060;-59
2022/01/23 12:51:04;;;;;;;6.97;3.33;;;;;;;4.06;61.66;95280.16;5010878;28;20054;-61
2022/01/23 12:53:54;;;;;;;6.33;3.20;;;;;;;3.99;61.86;95274.53;5011674;28;20050;-59
2022/01/23 12:56:24;;;;;;;7.35;3.75;;;;;;;3.73;62.70;95270.22;5012461;28;20406;-59
2022/01/23 12:59:10;;;;;;;6.85;3.42;;;;;;;2.90;64.87;95266.63;5042506;28;20458;-59
2022/01/23 13:01:41;;;;;;;7.28;3.40;;;;;;;2.76;65.54;95277.75;5011672;28;20038;-58
2022/01/23 13:04:08;;;;;;;5.43;2.90;;;;;;;2.83;65.04;95265.56;5010600;28;20076;-58
2022/01/23 13:06:52;;;;;;;6.70;3.00;;;;;;;2.76;65.25;95264.19;5011535;28;20361;-59
2022/01/23 13:12:14;;;;;;;7.85;3.53;;;;;;;2.67;66.22;95252.63;5010895;28;20080;-59
2022/01/23 13:14:50;;;;;;;6.82;3.75;;;;;;;3.00;64.91;95262.72;5011284;28;20052;-60
2022/01/23 13:31:47;;;;;;;6.82;3.78;;;;;;;2.67;65.90;95254.53;5010232;28;20391;-61
2022/01/23 13:34:50;;;;;;;6.87;3.90;;;;;;;2.97;65.25;95261.44;5009470;28;21728;-58
2022/01/23 13:37:23;;;;;;;7.28;4.10;;;;;;;3.39;63.82;95261.34;5005147;28;20567;-61
2022/01/23 13:40:00;;;;;;;9.07;4.60;;;;;;;3.69;63.54;95263.88;5010049;28;20056;-60
2022/01/23 14:02:37;;;;;;;7.90;3.80;;;;;;;3.52;64.18;95261.34;5008153;28;20697;-59
2022/01/23 14:05:11;;;;;;;9.73;4.60;;;;;;;3.88;62.86;95260.59;5009436;28;20061;-59
2022/01/23 14:07:41;;;;;;;11.20;4.63;;;;;;;3.71;63.41;95261.59;5010371;28;20041;-59
2022/01/23 14:10:16;;;;;;;10.38;4.45;;;;;;;3.39;64.90;95265.97;5009443;28;20361;-58
2022/01/23 14:12:44;;;;;;;9.00;4.10;;;;;;;3.35;64.53;95263.13;5009619;28;20038;-59
2022/01/23 14:15:23;;;;;;;8.90;4.00;;;;;;;3.07;64.87;95262.94;5008860;28;21647;-58
2022/01/23 14:18:11;;;;;;;7.43;3.90;;;;;;;2.64;66.72;95260.66;5009738;28;20052;-61
2022/01/23 14:20:43;;;;;;;7.60;4.22;;;;;;;2.37;66.76;95260.03;5009981;28;20075;-61
2022/01/23 14:23:11;;;;;;;10.52;4.70;;;;;;;2.43;66.42;95258.72;5008243;28;21760;-61
2022/01/23 14:25:50;;;;;;;7.15;3.70;;;;;;;2.33;66.67;95261.81;5009669;28;20398;-59
2022/01/23 14:28:21;;;;;;;7.87;4.20;;;;;;;2.45;66.80;95250.25;5008786;28;20834;-61
2022/01/23 14:30:54;;;;;;;6.93;3.80;;;;;;;2.12;67.48;95256.38;5009193;28;20034;-61
2022/01/23 14:33:35;;;;;;;9.30;4.95;;;;;;;2.54;66.25;95257.19;5009611;28;20038;-58
2022/01/23 14:36:28;;;;;;;10.23;4.65;;;;;;;2.55;66.45;95253.34;5008684;28;20492;-58
2022/01/23 14:39:00;;;;;;;7.50;4.40;;;;;;;2.44;66.31;95262.22;5009235;28;20042;-58
2022/01/23 14:41:33;;;;;;;8.70;4.77;;;;;;;2.78;65.60;95264.66;5009804;28;20042;-58
2022/01/23 14:44:05;;;;;;;8.05;4.05;;;;;;;2.70;65.50;95253.91;5008868;28;20034;-58
2022/01/23 14:46:33;;;;;;;7.63;3.75;;;;;;;2.84;64.52;95259.00;5007479;28;20056;-59
2022/01/23 14:49:09;;;;;;;8.73;4.28;;;;;;;2.84;65.10;95248.16;5008813;28;20052;-58
2022/01/23 14:51:38;;;;;;;13.93;6.13;;;;;;;2.60;66.14;95253.16;5009591;28;20034;-61
2022/01/23 14:54:05;;;;;;;8.60;4.77;;;;;;;2.56;65.99;95254.94;5008923;28;20046;-61
2022/01/23 14:56:36;;;;;;;7.72;3.67;;;;;;;2.50;65.83;95252.78;5009592;28;20623;-61
2022/01/23 14:59:04;;;;;;;8.02;4.43;;;;;;;2.14;68.01;95254.16;5008904;28;20065;-58
2022/01/23 15:01:33;;;;;;;13.63;7.65;;;;;;;2.53;66.82;95243.97;5009656;28;20440;-59
2022/01/23 15:04:05;;;;;;;9.13;4.30;;;;;;;2.25;67.21;95243.72;5008403;28;20454;-59
2022/01/23 15:06:33;;;;;;;6.73;3.73;;;;;;;2.10;67.05;95235.06;5009461;28;20052;-58
2022/01/23 15:09:08;;;;;;;8.30;4.18;;;;;;;2.08;67.60;95240.00;5007393;28;20049;-60
2022/01/23 15:11:37;;;;;;;7.40;4.18;;;;;;;1.78;68.90;95240.00;5009435;28;20038;-58
2022/01/23 15:14:05;;;;;;;22.35;11.38;;;;;;;1.91;68.96;95243.63;5008522;28;20060;-60
2022/01/23 15:16:33;;;;;;;471.52;145.40;;;;;;;1.89;68.70;95245.88;5008798;28;20048;-59
2022/01/23 15:19:01;;;;;;;8.83;4.30;;;;;;;1.44;69.80;95249.06;5008672;28;20046;-60
2022/01/23 15:21:28;;;;;;;12.35;4.90;;;;;;;1.53;70.30;95240.91;5024346;28;20038;-60
2022/01/23 15:23:56;;;;;;;10.70;5.57;;;;;;;1.48;70.42;95244.59;5008497;28;20049;-60
2022/01/23 15:26:29;;;;;;;13.02;6.35;;;;;;;1.90;69.28;95243.94;5023931;28;20048;-60
2022/01/23 15:28:56;;;;;;;8.63;4.60;;;;;;;1.63;69.22;95248.69;5007625;28;20068;-60